createdAt,value
2023-04-09T06:59:07.815Z,99.99
2023-04-09T07:00:08.563Z,99.99
2023-04-09T07:01:08.270Z,99.99
2023-04-09T07:02:09.069Z,99.99
2023-04-09T07:03:10.851Z,99.38
2023-04-09T07:04:10.743Z,97.00
2023-04-09T07:05:11.516Z,94.40
2023-04-09T07:06:11.854Z,94.35
2023-04-09T07:07:12.709Z,93.38
2023-04-09T07:08:13.306Z,94.31
2023-04-09T07:09:14.308Z,92.29
2023-04-09T07:10:14.822Z,90.44
2023-04-09T07:11:15.321Z,87.97
2023-04-09T07:12:15.948Z,85.80
2023-04-09T07:13:16.760Z,83.63
2023-04-09T07:14:17.139Z,83.41
2023-04-09T07:15:18.931Z,81.69
2023-04-09T07:16:18.848Z,80.71
2023-04-09T07:17:19.446Z,78.88
2023-04-09T07:18:19.913Z,80.22
2023-04-09T07:19:21.478Z,78.20
2023-04-09T07:20:21.608Z,76.89
2023-04-09T07:21:22.390Z,77.49
2023-04-09T07:22:22.958Z,76.78
2023-04-09T07:23:23.837Z,75.87
2023-04-09T07:24:24.516Z,74.76
2023-04-09T07:25:25.119Z,75.60
2023-04-09T07:26:26.478Z,74.63
2023-04-09T07:27:26.492Z,75.40
2023-04-09T07:28:26.987Z,72.88
2023-04-09T07:29:29.395Z,71.67
2023-04-09T07:30:41.763Z,73.22
2023-04-09T07:31:34.558Z,73.21
2023-04-09T07:32:31.225Z,71.13
2023-04-09T07:33:31.051Z,70.32
2023-04-09T07:34:33.017Z,69.18
2023-04-09T07:35:33.090Z,68.62
2023-04-09T07:36:37.786Z,68.59
2023-04-09T07:39:29.676Z,68.18
2023-04-09T07:40:30.334Z,70.15
2023-04-09T07:41:31.079Z,69.42
2023-04-09T07:42:32.070Z,69.72
2023-04-09T07:46:23.674Z,70.19
2023-04-09T07:47:24.655Z,69.05
2023-04-09T07:48:25.165Z,67.11
2023-04-09T07:49:25.765Z,65.50
2023-04-09T07:52:18.154Z,64.68
2023-04-09T07:53:18.642Z,64.27
2023-04-09T07:54:18.208Z,65.77
2023-04-09T07:55:18.681Z,65.21
2023-04-09T07:56:22.340Z,63.17
2023-04-09T07:57:20.659Z,61.70
2023-04-09T07:58:21.529Z,63.13
2023-04-09T08:02:08.297Z,63.49
2023-04-09T08:03:10.715Z,65.26
2023-04-09T08:04:08.987Z,65.59
2023-04-09T08:05:09.766Z,64.90
2023-04-09T08:06:10.748Z,62.16
2023-04-09T08:11:15.627Z,63.45
2023-04-09T08:12:15.714Z,63.32
2023-04-09T08:13:16.431Z,62.43
2023-04-09T08:14:16.920Z,60.29
2023-04-09T08:15:18.580Z,60.52
2023-04-09T08:16:18.437Z,60.60
2023-04-09T08:20:17.029Z,59.39
2023-04-09T08:21:17.260Z,59.52
2023-04-09T08:24:09.208Z,59.22
2023-04-09T08:25:07.856Z,59.01
2023-04-09T08:26:08.415Z,58.72
2023-04-09T08:27:08.702Z,57.35
2023-04-09T08:28:09.685Z,56.48
2023-04-09T08:29:10.290Z,55.80
2023-04-09T08:33:40.809Z,54.74
2023-04-09T08:34:41.743Z,54.37
2023-04-09T08:35:40.999Z,54.00
2023-04-09T08:36:53.875Z,55.35
2023-04-09T08:39:31.991Z,55.63
2023-04-09T08:40:32.741Z,57.34
2023-04-09T08:43:52.665Z,56.80
2023-04-09T08:44:32.669Z,56.40
2023-04-09T08:45:34.569Z,58.49
2023-04-09T08:46:33.055Z,58.39
2023-04-09T08:47:37.974Z,56.38
2023-04-09T08:50:35.105Z,57.34
2023-04-09T08:51:39.247Z,57.08
2023-04-09T08:52:32.511Z,56.63
2023-04-09T08:53:33.727Z,56.30
2023-04-09T08:54:34.984Z,56.10
2023-04-09T08:55:34.427Z,55.37
2023-04-09T08:56:35.495Z,55.47
2023-04-09T08:57:35.988Z,54.82
2023-04-09T08:58:37.213Z,52.49
2023-04-09T08:59:37.465Z,51.92
2023-04-09T09:00:38.387Z,52.74
2023-04-09T09:01:39.774Z,53.32
2023-04-09T09:02:42.780Z,54.17
2023-04-09T09:03:41.129Z,53.17
2023-04-09T09:04:41.807Z,53.07
2023-04-09T09:05:42.235Z,53.57
2023-04-09T09:06:43.523Z,54.87
2023-04-09T09:07:44.016Z,53.44
2023-04-09T09:08:45.087Z,53.37
2023-04-09T09:09:45.726Z,53.12
2023-04-09T09:10:46.429Z,53.79
2023-04-09T09:11:48.642Z,53.17
2023-04-09T09:16:58.466Z,50.99
2023-04-09T09:17:59.684Z,53.04
2023-04-09T09:19:02.773Z,54.85
2023-04-09T09:25:46.082Z,50.29
2023-04-09T09:26:50.420Z,49.85
2023-04-09T09:30:12.030Z,55.13
2023-04-09T09:34:30.955Z,62.01
2023-04-09T09:46:42.282Z,66.06
2023-04-09T09:53:06.776Z,66.67
2023-04-09T09:54:23.347Z,65.13
2023-04-09T10:08:09.605Z,63.68
2023-04-09T10:18:37.520Z,59.47
2023-04-09T10:25:25.577Z,55.85
2023-04-09T10:32:06.814Z,51.15
2023-04-09T10:42:52.027Z,57.88
2023-04-09T10:48:55.967Z,58.55
2023-04-09T10:59:19.500Z,53.30
2023-04-09T11:05:30.816Z,59.57
2023-04-09T11:08:34.555Z,56.71
2023-04-09T11:19:48.109Z,56.06
2023-04-09T11:20:58.354Z,53.97
2023-04-09T11:40:35.693Z,49.90
2023-04-09T11:45:39.113Z,53.45
2023-04-09T11:46:54.076Z,54.80
2023-04-09T11:49:43.552Z,57.43
2023-04-09T11:52:45.968Z,57.63
2023-04-09T12:00:18.983Z,54.78
2023-04-09T12:04:51.376Z,57.40
2023-04-09T12:08:18.953Z,56.74
2023-04-09T12:11:31.575Z,56.31
2023-04-09T12:36:43.278Z,54.43
2023-04-09T12:39:49.080Z,55.83
2023-04-09T12:42:42.790Z,54.71
2023-04-09T12:47:51.849Z,55.51
